Aviation WX

[Source: ADDS]
METAR
KFKL 230856Z AUTO 00000KT 7SM CLR 13/13 A3013 RMK AO2 SLP198 T01280128 55002 =
TAF
KFKL 230529Z 2306/2406 VRB03KT P6SM SCT250 FM230900 07003KT 2SM BR SKC TEMPO 2309/2312 1/4SM FG VV001 FM231400 VRB03KT P6SM SKC AMD LTD TO CLD VIS AND WIND =